createdAt,value
2022-09-18T00:08:20.531Z,0.8
2022-09-18T00:20:20.531Z,0.8
2022-09-18T00:32:20.518Z,0.8
2022-09-18T00:44:20.519Z,0.8
2022-09-18T00:56:20.513Z,0.9
2022-09-18T01:08:21.148Z,0.9
2022-09-18T01:20:20.552Z,0.5
2022-09-18T01:32:20.537Z,0.5
2022-09-18T01:44:20.525Z,0.5
2022-09-18T01:56:20.559Z,0.8
2022-09-18T02:08:20.552Z,0.8
2022-09-18T02:20:20.534Z,0.6
2022-09-18T02:32:20.579Z,0.6
2022-09-18T02:44:20.532Z,0.6
2022-09-18T02:56:20.541Z,0.4
2022-09-18T03:08:20.587Z,0.4
2022-09-18T03:20:20.568Z,0.5
2022-09-18T03:32:20.541Z,0.5
2022-09-18T03:44:20.516Z,0.5
2022-09-18T03:56:20.525Z,0.5
2022-09-18T04:08:20.791Z,0.5
2022-09-18T04:20:20.544Z,0.5
2022-09-18T04:32:20.550Z,0.5
2022-09-18T04:44:20.528Z,0.5
2022-09-18T04:56:20.543Z,0.4
2022-09-18T05:08:21.053Z,0.4
2022-09-18T05:20:20.537Z,0.4
2022-09-18T05:32:20.806Z,0.4
2022-09-18T05:44:21.004Z,0.4
2022-09-18T05:56:21.338Z,0.4
2022-09-18T06:08:21.354Z,0.4
2022-09-18T06:20:21.376Z,0.4
2022-09-18T06:32:21.454Z,0.4
2022-09-18T06:44:21.340Z,0.4
2022-09-18T06:56:21.549Z,0.4
2022-09-18T07:08:21.672Z,0.4
2022-09-18T07:20:21.143Z,0.3
2022-09-18T07:32:20.789Z,0.3
2022-09-18T07:44:20.986Z,0.3
2022-09-18T07:56:21.051Z,0.4
2022-09-18T08:08:21.078Z,0.4
2022-09-18T08:20:21.127Z,0.7
2022-09-18T08:32:21.304Z,0.7
2022-09-18T08:44:20.550Z,0.7
2022-09-18T08:56:20.555Z,0.6
2022-09-18T09:08:20.553Z,0.6
2022-09-18T09:20:20.538Z,0.8
2022-09-18T09:32:20.537Z,0.8
2022-09-18T09:44:20.572Z,0.8
2022-09-18T09:56:20.491Z,0.7
2022-09-18T10:08:20.563Z,0.7
2022-09-18T10:20:20.533Z,0.8
2022-09-18T10:32:20.542Z,0.8
2022-09-18T10:44:20.533Z,0.8
2022-09-18T10:56:20.571Z,0.9
2022-09-18T11:08:20.539Z,0.9
2022-09-18T11:20:20.520Z,1.2
2022-09-18T11:32:20.545Z,1.2
2022-09-18T11:44:20.560Z,1.2
2022-09-18T11:56:20.556Z,1.3
2022-09-18T12:08:19.194Z,1.3
2022-09-18T12:20:19.194Z,1.2
2022-09-18T12:32:19.138Z,1.2
2022-09-18T12:44:19.813Z,1.2
2022-09-18T12:56:19.829Z,1.3
2022-09-18T13:08:19.831Z,1.3
2022-09-18T13:20:20.635Z,1.5
2022-09-18T13:32:20.522Z,1.5
2022-09-18T13:44:20.513Z,1.5
2022-09-18T13:56:20.578Z,1.9
2022-09-18T14:08:20.440Z,1.9
2022-09-18T14:20:20.483Z,1.8
2022-09-18T14:32:20.507Z,1.8
2022-09-18T14:44:20.504Z,1.8
2022-09-18T14:56:20.512Z,1.8
2022-09-18T15:08:24.593Z,1.8
2022-09-18T15:20:20.494Z,1.8
2022-09-18T15:32:20.523Z,1.8
2022-09-18T15:44:20.529Z,1.8
2022-09-18T15:56:20.705Z,1.7
2022-09-18T16:08:20.558Z,1.7
2022-09-18T16:20:20.549Z,1.5
2022-09-18T16:32:20.531Z,1.5
2022-09-18T16:44:20.553Z,1.5
2022-09-18T16:56:20.541Z,1.3
2022-09-18T17:08:20.642Z,1.3
2022-09-18T17:20:20.583Z,1.7
2022-09-18T17:32:20.919Z,1.7
2022-09-18T17:44:20.577Z,1.7
2022-09-18T17:56:20.603Z,1.4
2022-09-18T18:08:20.626Z,1.4
2022-09-18T18:20:20.521Z,1.2
2022-09-18T18:32:20.536Z,1.2
2022-09-18T18:44:20.546Z,1.2
2022-09-18T18:56:20.507Z,1.0
2022-09-18T19:08:20.530Z,1.0
2022-09-18T19:20:20.526Z,0.9
2022-09-18T19:32:21.718Z,0.9
2022-09-18T19:44:20.536Z,0.9
2022-09-18T19:56:41.780Z,0.7
2022-09-18T20:08:20.543Z,0.7
2022-09-18T20:20:20.530Z,0.7
2022-09-18T20:32:20.517Z,0.7
2022-09-18T20:44:20.526Z,0.7
2022-09-18T20:56:20.507Z,0.9
2022-09-18T21:08:20.517Z,0.9
2022-09-18T21:20:20.495Z,0.8
2022-09-18T21:32:20.527Z,0.8
2022-09-18T21:44:20.722Z,0.8
2022-09-18T21:56:20.557Z,0.8
2022-09-18T22:08:20.555Z,0.8
2022-09-18T22:20:20.546Z,0.7
2022-09-18T22:32:20.546Z,0.7
2022-09-18T22:44:20.498Z,0.7
2022-09-18T22:56:20.505Z,0.6
2022-09-18T23:08:20.554Z,0.6
2022-09-18T23:20:21.095Z,0.5
2022-09-18T23:32:20.545Z,0.5
2022-09-18T23:44:20.549Z,0.5
2022-09-18T23:56:20.510Z,0.6
